EST,Max TemperatureF,Mean TemperatureF,Min TemperatureF,Max Dew PointF,MeanDew PointF,Min DewpointF,Max Humidity, Mean Humidity, Min Humidity, Max Sea Level PressureIn, Mean Sea Level PressureIn, Min Sea Level PressureIn, Max VisibilityMiles, Mean VisibilityMiles, Min VisibilityMiles, Max Wind SpeedMPH, Mean Wind SpeedMPH, Max Gust SpeedMPH,PrecipitationIn, CloudCover, Events, WindDirDegrees
2012-12-1,34,25,15,28,17,8,84,76,67,30.59,30.53,30.38,10,7,0,16,6,21,0.02,8,Snow,155
2012-12-2,48,41,34,43,37,29,86,79,71,30.35,30.10,29.92,10,10,7,25,17,36,0.10,7,Rain,184
2012-12-3,48,44,40,45,38,32,93,80,67,30.27,30.15,29.93,10,9,4,18,5,24,0.01,8,,336
2012-12-4,56,47,37,52,44,35,89,80,71,30.23,30.02,29.82,10,8,2,28,15,39,0.14,6,Rain,183
2012-12-5,50,39,28,48,30,16,93,75,56,30.26,30.02,29.85,10,8,2,26,13,36,0.33,7,Rain-Snow,309
2012-12-6,33,30,26,18,16,14,68,59,49,30.42,30.32,30.18,10,10,10,22,8,29,0.00,4,,335
2012-12-7,40,36,32,33,23,15,89,67,44,30.17,30.07,30.02,10,10,10,22,13,35,0.00,5,,185
2012-12-8,46,41,35,40,36,30,89,84,79,30.03,29.89,29.77,10,10,9,17,4,24,0.01,8,Rain,191
2012-12-9,46,38,29,35,27,23,82,73,64,30.33,30.22,30.02,10,9,1,18,7,25,0.02,6,Snow,342
2012-12-10,51,41,30,47,38,27,93,82,70,30.06,29.67,29.46,10,8,2,22,10,30,0.42,8,Rain-Snow,203
2012-12-11,40,32,23,35,22,17,89,76,63,30.20,29.92,29.62,10,10,4,17,7,22,T,7,Snow,4
2012-12-12,37,28,19,25,21,15,91,75,59,30.39,30.31,30.20,10,9,2,14,4,16,T,5,Snow,195
2012-12-13,39,34,28,26,24,21,78,65,52,30.46,30.38,30.22,10,10,10,13,5,17,T,4,,187
2012-12-14,42,37,31,29,25,22,72,61,50,30.26,30.15,30.08,10,10,10,20,10,23,0.00,5,,237
2012-12-15,31,24,16,21,12,7,74,58,42,30.43,30.36,30.25,10,10,10,14,6,17,0.00,3,,353
2012-12-16,34,26,18,28,20,11,80,69,58,30.30,30.12,29.99,10,7,1,14,5,18,0.06,7,Snow,135
2012-12-17,39,36,32,32,29,27,85,80,75,29.98,29.92,29.78,10,8,1,14,8,18,0.20,8,Rain-Snow,175
2012-12-18,41,39,37,38,36,32,100,91,82,29.75,29.53,29.46,10,5,0,16,5,21,0.45,8,Fog-Rain,343
2012-12-19,37,35,33,34,32,26,96,83,70,30.13,29.81,29.54,10,8,2,15,6,18,0.03,8,Rain-Snow,359
2012-12-20,37,34,30,29,26,25,85,75,64,30.25,30.13,29.88,10,10,1,16,5,22,T,6,,75
2012-12-21,48,41,34,43,34,28,86,75,64,29.86,29.32,28.91,10,8,2,39,16,51,0.19,8,Rain-Snow,148
2012-12-22,37,30,22,31,17,10,82,69,55,29.73,29.43,29.08,10,7,2,23,14,33,0.03,8,Snow,278
2012-12-23,30,25,20,27,19,9,88,72,55,29.88,29.78,29.73,10,7,2,23,8,31,0.03,8,Snow,252
2012-12-24,30,24,17,18,15,9,84,71,58,30.09,30.03,29.89,10,9,4,16,6,20,T,5,Snow,11
2012-12-25,22,17,12,16,12,7,84,73,61,30.38,30.17,30.04,10,9,1,14,6,17,0.01,5,Snow,10
2012-12-26,23,16,8,14,9,3,84,76,67,30.41,30.30,30.03,10,10,7,13,5,15,T,3,Snow,19
2012-12-27,24,20,16,20,18,12,92,86,80,30.02,29.75,29.64,10,2,0,20,12,26,0.74,8,Fog-Snow,348
2012-12-28,28,23,17,22,19,15,92,80,68,30.07,29.96,29.82,10,6,2,18,7,24,0.07,7,Snow,360
2012-12-29,25,21,17,21,18,12,92,87,81,30.04,29.82,29.63,10,4,0,16,5,20,0.31,8,Fog-Snow,349
2012-12-30,18,16,14,13,10,4,88,72,56,30.12,29.83,29.64,10,4,0,17,9,23,0.13,7,Fog-Snow,353
2012-12-31,31,22,13,25,17,7,84,78,72,30.11,29.91,29.66,10,9,2,17,8,23,T,8,Snow,172